createdAt,value
2023-05-14T00:00:29.865Z,10.60
2023-05-14T00:01:29.779Z,8.60
2023-05-14T00:02:30.068Z,10.70
2023-05-14T00:03:30.019Z,11.00
2023-05-14T00:04:29.764Z,9.40
2023-05-14T00:05:29.715Z,7.80
2023-05-14T00:06:29.715Z,8.00
2023-05-14T00:07:29.739Z,10.00
2023-05-14T00:08:29.707Z,8.80
2023-05-14T00:09:29.701Z,9.80
2023-05-14T00:10:29.717Z,11.10
2023-05-14T00:11:29.651Z,11.50
2023-05-14T00:12:29.651Z,9.70
2023-05-14T00:13:29.643Z,9.30
2023-05-14T00:14:29.582Z,11.30
2023-05-14T00:15:30.039Z,10.20
2023-05-14T00:16:29.668Z,11.50
2023-05-14T00:17:29.585Z,8.70
2023-05-14T00:18:29.592Z,8.80
2023-05-14T00:19:29.553Z,8.60
2023-05-14T00:20:29.546Z,10.10
2023-05-14T00:21:29.543Z,8.30
2023-05-14T00:22:29.542Z,9.50
2023-05-14T00:23:29.890Z,9.40
2023-05-14T00:24:29.493Z,11.10
2023-05-14T00:25:29.465Z,11.80
2023-05-14T00:26:30.062Z,9.00
2023-05-14T00:27:29.506Z,10.40
2023-05-14T00:28:29.490Z,11.50
2023-05-14T00:29:29.429Z,12.40
2023-05-14T00:30:29.421Z,11.10
2023-05-14T00:31:29.493Z,11.60
2023-05-14T00:32:29.424Z,12.10
2023-05-14T00:33:29.378Z,11.30
2023-05-14T00:34:29.427Z,9.40
2023-05-14T00:35:29.351Z,9.70
2023-05-14T00:36:29.372Z,11.70
2023-05-14T00:37:29.513Z,9.60
2023-05-14T00:38:29.335Z,11.30
2023-05-14T00:39:29.313Z,11.10
2023-05-14T00:40:29.512Z,9.70
2023-05-14T00:41:29.327Z,11.70
2023-05-14T00:42:29.373Z,15.50
2023-05-14T00:43:29.270Z,11.10
2023-05-14T00:44:29.461Z,10.80
2023-05-14T00:45:29.263Z,11.40
2023-05-14T00:46:29.305Z,11.80
2023-05-14T00:47:29.269Z,9.80
2023-05-14T00:48:29.398Z,10.30
2023-05-14T00:49:29.208Z,9.60
2023-05-14T00:50:29.205Z,10.70
2023-05-14T00:51:29.822Z,9.00
2023-05-14T00:52:29.227Z,9.80
2023-05-14T00:53:29.218Z,11.00
2023-05-14T00:54:29.332Z,9.40
2023-05-14T00:55:29.133Z,10.50
2023-05-14T00:56:29.171Z,9.00
2023-05-14T00:57:29.352Z,8.60
2023-05-14T00:58:29.470Z,10.40
2023-05-14T00:59:29.077Z,12.00
2023-05-14T01:00:29.169Z,8.50
2023-05-14T01:01:29.132Z,10.00
2023-05-14T01:02:29.148Z,7.90
2023-05-14T01:03:29.164Z,8.00
2023-05-14T01:04:29.099Z,7.60
2023-05-14T01:05:29.019Z,8.00
2023-05-14T01:06:29.028Z,10.20
2023-05-14T01:07:29.011Z,9.70
2023-05-14T01:08:28.995Z,8.80
2023-05-14T01:09:28.957Z,8.30
2023-05-14T01:10:29.062Z,11.70
2023-05-14T01:11:28.929Z,10.10
2023-05-14T01:12:28.962Z,10.10
2023-05-14T01:13:28.904Z,11.70
2023-05-14T01:14:28.933Z,9.80
2023-05-14T01:15:28.919Z,11.20
2023-05-14T01:16:29.070Z,10.10
2023-05-14T01:17:28.950Z,9.90
2023-05-14T01:18:28.908Z,11.10
2023-05-14T01:19:28.982Z,10.00
2023-05-14T01:20:28.883Z,10.80
2023-05-14T01:21:28.832Z,8.90
2023-05-14T01:22:28.834Z,9.20
2023-05-14T01:23:29.145Z,10.40
2023-05-14T01:24:29.025Z,10.30
2023-05-14T01:25:29.023Z,8.50
2023-05-14T01:26:29.342Z,14.50
2023-05-14T01:27:28.760Z,9.10
2023-05-14T01:28:28.771Z,10.10
2023-05-14T01:29:28.730Z,7.60
2023-05-14T01:30:28.756Z,9.40
2023-05-14T01:31:28.777Z,10.60
2023-05-14T01:32:28.810Z,8.50
2023-05-14T01:33:28.703Z,7.30
2023-05-14T01:34:28.702Z,9.00
2023-05-14T01:35:28.653Z,10.10
2023-05-14T01:36:28.653Z,9.00
2023-05-14T01:37:29.121Z,9.20
2023-05-14T01:38:28.681Z,8.30
2023-05-14T01:39:28.643Z,10.30
2023-05-14T01:40:28.611Z,7.70
2023-05-14T01:41:28.577Z,8.60
2023-05-14T01:42:28.622Z,9.00
2023-05-14T01:43:29.115Z,9.10
2023-05-14T01:44:29.085Z,8.90
2023-05-14T01:45:28.560Z,10.20
2023-05-14T01:46:28.617Z,9.60
2023-05-14T01:47:28.568Z,10.80
2023-05-14T01:48:28.525Z,8.50
2023-05-14T01:49:28.493Z,8.40
2023-05-14T01:50:28.514Z,8.70
2023-05-14T01:51:28.472Z,10.30
2023-05-14T01:52:28.484Z,9.80
2023-05-14T01:53:28.438Z,9.10
2023-05-14T01:54:28.459Z,8.20
2023-05-14T01:55:28.403Z,11.20
2023-05-14T01:56:28.475Z,10.00
2023-05-14T01:57:28.407Z,8.20
2023-05-14T01:58:28.398Z,9.00
2023-05-14T01:59:28.459Z,8.50
2023-05-14T02:00:28.393Z,10.40
2023-05-14T02:01:28.388Z,9.60
2023-05-14T02:02:28.407Z,9.50
2023-05-14T02:03:28.360Z,10.00
2023-05-14T02:04:28.416Z,10.40
2023-05-14T02:05:28.478Z,10.10
2023-05-14T02:06:28.305Z,9.60
2023-05-14T02:07:28.297Z,9.40
2023-05-14T02:08:28.319Z,8.60
2023-05-14T02:09:28.619Z,9.60
2023-05-14T02:10:28.290Z,8.00
2023-05-14T02:11:28.224Z,8.70
2023-05-14T02:12:28.277Z,6.90
2023-05-14T02:13:28.215Z,11.80
2023-05-14T02:14:28.221Z,8.60
2023-05-14T02:15:28.241Z,9.50
2023-05-14T02:16:28.252Z,10.20
2023-05-14T02:17:28.223Z,8.70
2023-05-14T02:18:28.410Z,9.20
2023-05-14T02:19:28.143Z,7.50
2023-05-14T02:20:28.240Z,10.70
2023-05-14T02:21:28.147Z,8.90
2023-05-14T02:22:28.135Z,8.40
2023-05-14T02:23:40.476Z,11.10
2023-05-14T02:24:29.142Z,9.30
2023-05-14T02:25:28.204Z,9.20
2023-05-14T02:26:28.239Z,8.10
2023-05-14T02:27:28.047Z,7.60
2023-05-14T02:28:28.057Z,6.80
2023-05-14T02:29:28.067Z,9.90
2023-05-14T02:30:28.030Z,7.90
2023-05-14T02:31:28.026Z,8.40
2023-05-14T02:32:28.206Z,9.30
2023-05-14T02:33:28.026Z,8.60
2023-05-14T02:34:28.176Z,8.50
2023-05-14T02:35:28.287Z,8.70
2023-05-14T02:36:27.997Z,9.80
2023-05-14T02:37:27.968Z,11.00
2023-05-14T02:38:27.979Z,8.80
2023-05-14T02:39:27.935Z,10.30
2023-05-14T02:40:27.921Z,7.00
2023-05-14T02:41:27.905Z,7.10
2023-05-14T02:42:27.929Z,9.80
2023-05-14T02:43:27.872Z,8.40
2023-05-14T02:44:28.035Z,8.50
2023-05-14T02:45:28.277Z,9.10
2023-05-14T02:46:28.126Z,7.30
2023-05-14T02:47:27.873Z,8.90
2023-05-14T02:48:27.820Z,8.00
2023-05-14T02:49:27.828Z,8.90
2023-05-14T02:50:27.803Z,9.10
2023-05-14T02:51:27.770Z,9.00
2023-05-14T02:52:27.841Z,7.80
2023-05-14T02:53:27.765Z,14.60
2023-05-14T02:54:27.784Z,12.10
2023-05-14T02:55:27.764Z,8.40
2023-05-14T02:56:27.742Z,7.80
2023-05-14T02:57:27.706Z,11.10
2023-05-14T02:58:28.523Z,8.10
2023-05-14T02:59:27.714Z,11.90
2023-05-14T03:00:27.685Z,7.80
2023-05-14T03:01:27.712Z,8.40
2023-05-14T03:02:27.742Z,7.90
2023-05-14T03:03:27.686Z,10.70
2023-05-14T03:04:27.637Z,8.10
2023-05-14T03:05:27.612Z,10.30
2023-05-14T03:06:27.639Z,8.50
2023-05-14T03:07:27.591Z,8.40
2023-05-14T03:08:27.805Z,9.80
2023-05-14T03:09:27.584Z,9.10
2023-05-14T03:10:27.598Z,11.90
2023-05-14T03:11:27.541Z,8.10
2023-05-14T03:12:27.560Z,9.70
2023-05-14T03:13:27.576Z,9.40
2023-05-14T03:14:27.543Z,9.50
2023-05-14T03:15:27.562Z,7.80
2023-05-14T03:16:27.581Z,10.90
2023-05-14T03:17:27.517Z,9.30
2023-05-14T03:18:27.569Z,10.20
2023-05-14T03:19:27.492Z,8.40
2023-05-14T03:20:27.463Z,8.40
2023-05-14T03:21:27.463Z,9.10
2023-05-14T03:22:27.449Z,8.30
2023-05-14T03:23:27.442Z,7.70
2023-05-14T03:24:27.525Z,10.80
2023-05-14T03:25:27.410Z,8.50
2023-05-14T03:26:27.828Z,9.30
2023-05-14T03:27:27.515Z,9.60
2023-05-14T03:28:27.390Z,7.70
2023-05-14T03:29:27.404Z,8.30
2023-05-14T03:30:27.443Z,10.10
2023-05-14T03:31:27.386Z,8.40
2023-05-14T03:32:27.392Z,8.20
2023-05-14T03:33:27.300Z,8.30
2023-05-14T03:34:27.312Z,10.80
2023-05-14T03:35:27.501Z,9.80
2023-05-14T03:36:27.316Z,8.30
2023-05-14T03:37:27.293Z,8.10
2023-05-14T03:38:27.286Z,10.30
2023-05-14T03:39:27.251Z,8.30
2023-05-14T03:40:27.252Z,10.40
2023-05-14T03:41:27.334Z,9.70
2023-05-14T03:42:27.274Z,9.70
2023-05-14T03:43:27.212Z,8.00
2023-05-14T03:44:27.212Z,11.70
2023-05-14T03:45:27.279Z,8.00
2023-05-14T03:46:27.551Z,8.10
2023-05-14T03:47:27.172Z,7.70
2023-05-14T03:48:27.383Z,8.90
2023-05-14T03:49:27.125Z,10.70
2023-05-14T03:50:27.139Z,7.20
2023-05-14T03:51:27.086Z,9.20
2023-05-14T03:52:27.114Z,7.60
2023-05-14T03:53:27.130Z,9.70
2023-05-14T03:54:27.098Z,8.00
2023-05-14T03:55:27.054Z,7.80
2023-05-14T03:56:27.076Z,10.90
2023-05-14T03:57:27.113Z,8.60
2023-05-14T03:58:27.049Z,8.50
2023-05-14T03:59:27.009Z,10.50
2023-05-14T04:00:27.561Z,7.30
2023-05-14T04:01:27.168Z,8.70
2023-05-14T04:02:27.070Z,11.10
2023-05-14T04:03:27.075Z,9.60
2023-05-14T04:04:27.249Z,9.20
2023-05-14T04:05:26.976Z,8.00
2023-05-14T04:06:27.103Z,8.50
2023-05-14T04:07:27.090Z,11.00
2023-05-14T04:08:27.025Z,10.00
2023-05-14T04:09:27.052Z,7.60
2023-05-14T04:10:26.943Z,7.40
2023-05-14T04:11:26.907Z,8.60
2023-05-14T04:12:27.051Z,7.50
2023-05-14T04:13:27.140Z,9.20
2023-05-14T04:14:27.045Z,8.50
2023-05-14T04:15:26.840Z,10.00
2023-05-14T04:16:26.926Z,8.70
2023-05-14T04:17:26.928Z,8.10
2023-05-14T04:18:26.837Z,7.90
2023-05-14T04:19:26.790Z,9.70
2023-05-14T04:20:26.841Z,10.70
2023-05-14T04:21:26.784Z,8.20
2023-05-14T04:22:26.789Z,8.40
2023-05-14T04:23:26.742Z,8.30
2023-05-14T04:24:26.780Z,7.20
2023-05-14T04:25:26.707Z,11.00
2023-05-14T04:26:26.734Z,8.00
2023-05-14T04:27:26.723Z,7.50
2023-05-14T04:28:26.732Z,9.10
2023-05-14T04:29:26.722Z,8.90
2023-05-14T04:30:26.710Z,8.50
2023-05-14T04:31:26.691Z,8.30
2023-05-14T04:32:26.714Z,10.30
2023-05-14T04:33:26.642Z,10.00
2023-05-14T04:34:26.689Z,10.00
2023-05-14T04:35:26.601Z,8.10
2023-05-14T04:36:26.642Z,7.00
2023-05-14T04:37:26.619Z,8.40
2023-05-14T04:38:26.607Z,11.80
2023-05-14T04:39:26.997Z,7.50
2023-05-14T04:40:26.869Z,8.80
2023-05-14T04:41:26.575Z,9.10
2023-05-14T04:42:26.563Z,9.90
2023-05-14T04:43:26.547Z,8.90
2023-05-14T04:44:26.514Z,8.10
2023-05-14T04:45:26.531Z,9.50
2023-05-14T04:46:26.709Z,9.30
2023-05-14T04:47:26.535Z,8.80
2023-05-14T04:48:26.820Z,7.30
2023-05-14T04:49:26.508Z,10.30
2023-05-14T04:50:26.512Z,6.90
2023-05-14T04:51:26.465Z,10.60
2023-05-14T04:52:26.412Z,8.10
2023-05-14T04:53:26.500Z,9.60
2023-05-14T04:54:26.578Z,11.00
2023-05-14T04:55:26.610Z,8.90
2023-05-14T04:56:26.598Z,8.80
2023-05-14T04:57:26.385Z,8.40
2023-05-14T04:58:26.778Z,10.00
2023-05-14T04:59:26.445Z,8.30
2023-05-14T05:00:26.954Z,8.50
2023-05-14T05:01:27.883Z,8.90
2023-05-14T05:02:26.343Z,7.40
2023-05-14T05:03:27.067Z,7.10
2023-05-14T05:04:26.356Z,6.60
2023-05-14T05:05:26.488Z,9.50
2023-05-14T05:06:26.482Z,10.30
2023-05-14T05:07:26.495Z,8.20
2023-05-14T05:08:26.487Z,7.30
2023-05-14T05:09:26.528Z,8.30
2023-05-14T05:10:26.591Z,8.40
2023-05-14T05:11:26.233Z,6.80
2023-05-14T05:12:26.221Z,7.80
2023-05-14T05:13:26.213Z,5.40
2023-05-14T05:14:26.183Z,8.10
2023-05-14T05:15:26.734Z,6.30
2023-05-14T05:16:26.294Z,8.50
2023-05-14T05:17:26.190Z,5.30
2023-05-14T05:18:26.213Z,7.90
2023-05-14T05:19:35.661Z,7.50
2023-05-14T05:20:27.149Z,6.20
2023-05-14T05:21:26.119Z,7.20
2023-05-14T05:22:26.103Z,6.50
2023-05-14T05:23:26.110Z,6.70
2023-05-14T05:24:26.047Z,8.60
2023-05-14T05:25:26.088Z,6.00
2023-05-14T05:26:26.140Z,7.60
2023-05-14T05:27:26.076Z,8.90
2023-05-14T05:28:26.012Z,10.40
2023-05-14T05:29:26.029Z,7.90
2023-05-14T05:30:26.212Z,7.20
2023-05-14T05:31:26.063Z,6.80
2023-05-14T05:32:26.008Z,9.10
2023-05-14T05:33:26.014Z,7.20
2023-05-14T05:34:25.957Z,5.80
2023-05-14T05:35:25.981Z,6.80
2023-05-14T05:36:25.997Z,7.60
2023-05-14T05:37:25.922Z,7.20
2023-05-14T05:38:25.891Z,8.20
2023-05-14T05:39:25.898Z,8.60
2023-05-14T05:40:26.003Z,5.70
2023-05-14T05:41:25.900Z,7.70
2023-05-14T05:42:25.840Z,6.60
2023-05-14T05:43:25.861Z,8.20
2023-05-14T05:44:25.820Z,6.50
2023-05-14T05:45:25.836Z,5.80
2023-05-14T05:46:25.879Z,6.70
2023-05-14T05:47:25.819Z,6.30
2023-05-14T05:48:25.789Z,5.90
2023-05-14T05:49:26.271Z,8.00
2023-05-14T05:50:26.256Z,7.80
2023-05-14T05:51:25.781Z,7.90
2023-05-14T05:52:25.814Z,6.70
2023-05-14T05:53:25.770Z,5.70
2023-05-14T05:54:25.718Z,8.00
2023-05-14T05:55:25.747Z,8.10
2023-05-14T05:56:25.672Z,7.10
2023-05-14T05:57:26.403Z,5.50
2023-05-14T05:58:25.652Z,5.80
2023-05-14T05:59:25.709Z,5.40
2023-05-14T06:00:26.045Z,7.00
2023-05-14T06:01:25.676Z,6.90
2023-05-14T06:02:25.655Z,6.70
2023-05-14T06:03:25.678Z,12.60
2023-05-14T06:04:25.584Z,5.30
2023-05-14T06:05:25.680Z,6.00
2023-05-14T06:06:25.579Z,5.40
2023-05-14T06:07:25.573Z,7.90
2023-05-14T06:08:25.567Z,5.70
2023-05-14T06:09:25.570Z,6.40
2023-05-14T06:10:26.103Z,7.00
2023-05-14T06:11:25.979Z,5.80
2023-05-14T06:12:25.548Z,7.00
2023-05-14T06:13:25.531Z,5.90
2023-05-14T06:14:25.485Z,5.30
2023-05-14T06:15:25.503Z,4.50
2023-05-14T06:16:25.546Z,5.30
2023-05-14T06:17:25.721Z,4.50
2023-05-14T06:18:25.509Z,7.30
2023-05-14T06:19:25.459Z,5.80
2023-05-14T06:20:25.681Z,6.00
2023-05-14T06:21:25.464Z,6.30
2023-05-14T06:22:25.456Z,4.90
2023-05-14T06:23:25.421Z,6.00
2023-05-14T06:24:25.379Z,5.60
2023-05-14T06:25:25.397Z,6.60
2023-05-14T06:26:25.976Z,5.50
2023-05-14T06:27:25.361Z,6.20
2023-05-14T06:28:25.340Z,5.90
2023-05-14T06:29:25.361Z,5.20
2023-05-14T06:30:25.599Z,5.20
2023-05-14T06:31:25.349Z,5.00
2023-05-14T06:32:25.387Z,4.60
2023-05-14T06:33:25.343Z,6.30
2023-05-14T06:34:25.267Z,7.20
2023-05-14T06:35:25.275Z,7.50
2023-05-14T06:36:25.251Z,8.40
2023-05-14T06:37:25.272Z,5.60
2023-05-14T06:38:25.227Z,6.00
2023-05-14T06:39:25.265Z,5.80
2023-05-14T06:40:25.405Z,5.40
2023-05-14T06:41:25.233Z,6.50
2023-05-14T06:42:25.181Z,6.50
2023-05-14T06:43:25.192Z,6.30
2023-05-14T06:44:25.175Z,5.60
2023-05-14T06:45:25.156Z,4.60
2023-05-14T06:46:25.117Z,4.30
2023-05-14T06:47:25.229Z,4.10
2023-05-14T06:48:25.190Z,4.80
2023-05-14T06:49:25.178Z,4.70
2023-05-14T06:50:25.265Z,4.10
2023-05-14T06:51:25.264Z,4.00
2023-05-14T06:52:25.262Z,3.70
2023-05-14T06:53:25.146Z,4.80
2023-05-14T06:54:25.047Z,4.80
2023-05-14T06:55:25.049Z,4.10
2023-05-14T06:56:24.999Z,4.50
2023-05-14T06:57:25.015Z,5.40
2023-05-14T06:58:25.018Z,3.70
2023-05-14T06:59:24.983Z,5.60
2023-05-14T07:00:25.226Z,5.30
2023-05-14T07:01:25.036Z,3.80
2023-05-14T07:02:24.965Z,4.00
2023-05-14T07:03:25.706Z,4.70
2023-05-14T07:04:24.928Z,6.00
2023-05-14T07:05:25.356Z,4.90
2023-05-14T07:06:24.941Z,5.00
2023-05-14T07:07:24.901Z,3.60
2023-05-14T07:08:24.952Z,5.30
2023-05-14T07:09:24.895Z,5.50
2023-05-14T07:10:26.569Z,3.70
2023-05-14T07:11:26.094Z,4.60
2023-05-14T07:12:25.088Z,4.20
2023-05-14T07:13:27.590Z,5.30
2023-05-14T07:14:24.823Z,5.00
2023-05-14T07:15:24.813Z,7.70
2023-05-14T07:16:25.043Z,4.50
2023-05-14T07:17:24.956Z,5.40
2023-05-14T07:18:24.866Z,4.10
2023-05-14T07:19:24.769Z,5.30
2023-05-14T07:20:25.011Z,4.30
2023-05-14T07:21:24.750Z,3.60
2023-05-14T07:22:24.710Z,4.50
2023-05-14T07:23:24.730Z,5.50
2023-05-14T07:24:24.724Z,4.60
2023-05-14T07:25:24.738Z,6.20
2023-05-14T07:26:24.704Z,3.90
2023-05-14T07:27:24.665Z,3.50
2023-05-14T07:28:24.639Z,4.10
2023-05-14T07:29:24.656Z,6.30
2023-05-14T07:30:24.997Z,4.00
2023-05-14T07:31:24.669Z,4.00
2023-05-14T07:32:24.654Z,3.20
2023-05-14T07:33:24.625Z,5.70
2023-05-14T07:34:24.552Z,5.00
2023-05-14T07:35:31.650Z,3.30
2023-05-14T07:36:25.288Z,4.30
2023-05-14T07:37:24.536Z,4.50
2023-05-14T07:38:25.247Z,3.70
2023-05-14T07:39:25.401Z,5.00
2023-05-14T07:40:24.668Z,4.60
2023-05-14T07:41:24.538Z,2.70
2023-05-14T07:42:35.394Z,3.60
2023-05-14T07:43:25.509Z,3.00
2023-05-14T07:44:24.472Z,3.20
2023-05-14T07:45:24.653Z,3.30
2023-05-14T07:46:24.790Z,3.60
2023-05-14T07:47:24.526Z,3.00
2023-05-14T07:48:24.564Z,3.20
2023-05-14T07:49:24.444Z,2.70
2023-05-14T07:50:24.714Z,3.20
2023-05-14T07:51:24.455Z,4.60
2023-05-14T07:52:24.384Z,4.00
2023-05-14T07:53:24.955Z,4.30
2023-05-14T07:54:24.375Z,4.90
2023-05-14T07:55:24.390Z,3.70
2023-05-14T07:56:24.333Z,3.30
2023-05-14T07:57:24.622Z,3.40
2023-05-14T07:58:24.287Z,3.80
2023-05-14T07:59:24.325Z,4.80
2023-05-14T08:00:24.555Z,3.80
2023-05-14T08:01:24.371Z,3.70
2023-05-14T08:02:24.359Z,2.80
2023-05-14T08:03:24.304Z,4.20
2023-05-14T08:04:24.272Z,3.50
2023-05-14T08:05:24.245Z,5.60
2023-05-14T08:06:24.270Z,3.80
2023-05-14T08:07:24.238Z,3.50
2023-05-14T08:08:24.343Z,3.00
2023-05-14T08:09:24.245Z,4.40
2023-05-14T08:10:24.244Z,3.30
2023-05-14T08:11:24.172Z,5.50
2023-05-14T08:12:24.267Z,3.20
2023-05-14T08:13:24.245Z,3.50
2023-05-14T08:14:24.174Z,4.10
2023-05-14T08:15:27.084Z,3.40
2023-05-14T08:16:24.954Z,3.70
2023-05-14T08:17:24.145Z,3.60
2023-05-14T08:18:24.063Z,3.00
2023-05-14T08:19:24.076Z,3.00
2023-05-14T08:20:24.252Z,4.00
2023-05-14T08:21:24.157Z,2.30
2023-05-14T08:22:24.019Z,3.10
2023-05-14T08:23:24.038Z,2.40
2023-05-14T08:24:24.000Z,3.00
2023-05-14T08:25:24.028Z,2.90
2023-05-14T08:26:23.961Z,2.40
2023-05-14T08:27:24.003Z,2.20
2023-05-14T08:28:24.030Z,2.90
2023-05-14T08:29:23.989Z,2.40
2023-05-14T08:30:24.180Z,2.10
2023-05-14T08:31:24.027Z,3.90
2023-05-14T08:32:24.371Z,2.70
2023-05-14T08:33:24.015Z,3.10
2023-05-14T08:34:23.943Z,4.00
2023-05-14T08:35:23.895Z,4.00
2023-05-14T08:36:23.866Z,2.90
2023-05-14T08:37:24.067Z,2.30
2023-05-14T08:38:24.205Z,3.00
2023-05-14T08:39:23.903Z,3.10
2023-05-14T08:40:24.180Z,2.20
2023-05-14T08:41:23.828Z,4.30
2023-05-14T08:42:23.825Z,3.20
2023-05-14T08:43:23.832Z,2.30
2023-05-14T08:44:23.762Z,3.00
2023-05-14T08:45:23.845Z,2.40
2023-05-14T08:46:23.755Z,4.30
2023-05-14T08:47:23.958Z,2.60
2023-05-14T08:48:23.798Z,3.40
2023-05-14T08:49:23.738Z,2.80
2023-05-14T08:50:23.905Z,2.00
2023-05-14T08:51:23.709Z,2.90
2023-05-14T08:52:23.693Z,2.90
2023-05-14T08:53:23.874Z,4.40
2023-05-14T08:54:23.855Z,2.10
2023-05-14T08:55:23.810Z,2.80
2023-05-14T08:56:23.998Z,2.10
2023-05-14T08:57:24.006Z,2.30
2023-05-14T08:58:24.002Z,2.60
2023-05-14T08:59:24.099Z,3.00
2023-05-14T09:00:24.021Z,3.10
2023-05-14T09:01:24.172Z,3.50
2023-05-14T09:02:23.673Z,2.00
2023-05-14T09:03:24.002Z,2.00
2023-05-14T09:04:23.560Z,3.30
2023-05-14T09:05:23.546Z,2.40
2023-05-14T09:06:23.546Z,2.00
2023-05-14T09:07:23.701Z,2.30
2023-05-14T09:08:23.719Z,2.70
2023-05-14T09:09:23.481Z,4.70
2023-05-14T09:10:23.756Z,2.00
2023-05-14T09:11:23.574Z,2.40
2023-05-14T09:12:23.477Z,2.00
2023-05-14T09:13:23.435Z,3.10
2023-05-14T09:14:23.520Z,3.20
2023-05-14T09:15:23.510Z,1.90
2023-05-14T09:16:23.488Z,9.30
2023-05-14T09:17:23.478Z,2.10
2023-05-14T09:18:23.426Z,2.10
2023-05-14T09:19:23.400Z,3.50
2023-05-14T09:20:23.802Z,2.10
2023-05-14T09:21:23.392Z,2.50
2023-05-14T09:22:23.405Z,4.40
2023-05-14T09:23:23.397Z,2.90
2023-05-14T09:24:23.351Z,2.00
2023-05-14T09:25:23.294Z,2.30
2023-05-14T09:26:23.329Z,2.10
2023-05-14T09:27:23.280Z,2.10
2023-05-14T09:28:23.293Z,1.70
2023-05-14T09:29:23.348Z,2.40
2023-05-14T09:30:23.778Z,2.20
2023-05-14T09:31:23.338Z,2.10
2023-05-14T09:32:23.277Z,2.60
2023-05-14T09:33:23.423Z,2.40
2023-05-14T09:34:23.646Z,2.40
2023-05-14T09:35:23.256Z,2.40
2023-05-14T09:36:23.197Z,3.20
2023-05-14T09:37:23.170Z,2.20
2023-05-14T09:38:23.273Z,1.80
2023-05-14T09:39:23.355Z,2.20
2023-05-14T09:40:24.089Z,2.50
2023-05-14T09:41:23.202Z,1.90
2023-05-14T09:42:23.177Z,2.30
2023-05-14T09:43:23.095Z,1.60
2023-05-14T09:44:23.123Z,2.90
2023-05-14T09:45:23.084Z,2.60
2023-05-14T09:46:23.088Z,2.40
2023-05-14T09:47:23.135Z,2.50
2023-05-14T09:48:23.182Z,3.80
2023-05-14T09:49:23.346Z,1.90
2023-05-14T09:50:23.373Z,2.20
2023-05-14T09:51:23.022Z,1.90
2023-05-14T09:52:23.033Z,2.70
2023-05-14T09:53:23.488Z,2.90
2023-05-14T09:54:22.989Z,2.90
2023-05-14T09:55:23.425Z,2.70
2023-05-14T09:56:23.386Z,1.90
2023-05-14T09:57:22.947Z,2.40
2023-05-14T09:58:22.987Z,2.10
2023-05-14T09:59:22.973Z,3.00
2023-05-14T10:00:23.848Z,2.30
2023-05-14T10:01:22.993Z,1.80
2023-05-14T10:02:22.975Z,4.00
2023-05-14T10:03:22.906Z,2.60
2023-05-14T10:04:22.943Z,1.80
2023-05-14T10:05:22.839Z,1.90
2023-05-14T10:06:22.899Z,1.70
2023-05-14T10:07:22.832Z,2.00
2023-05-14T10:08:23.192Z,2.60
2023-05-14T10:09:22.791Z,2.00
2023-05-14T10:10:23.606Z,1.50
2023-05-14T10:11:22.877Z,2.00
2023-05-14T10:12:23.082Z,2.20
2023-05-14T10:13:22.795Z,2.30
2023-05-14T10:14:22.846Z,3.40
2023-05-14T10:15:23.530Z,2.90
2023-05-14T10:16:23.032Z,1.70
2023-05-14T10:17:23.080Z,1.90
2023-05-14T10:18:22.874Z,2.10
2023-05-14T10:19:23.021Z,2.20
2023-05-14T10:20:23.189Z,3.90
2023-05-14T10:21:22.758Z,2.10
2023-05-14T10:22:22.832Z,3.30
2023-05-14T10:23:22.688Z,1.60
2023-05-14T10:24:22.764Z,1.80
2023-05-14T10:25:22.761Z,3.10
2023-05-14T10:26:23.968Z,10.30
2023-05-14T10:27:22.593Z,3.60
2023-05-14T10:28:22.651Z,2.40
2023-05-14T10:29:22.584Z,3.70
2023-05-14T10:30:22.907Z,3.90
2023-05-14T10:31:22.612Z,1.90
2023-05-14T10:32:22.649Z,2.40
2023-05-14T10:33:22.850Z,1.90
2023-05-14T10:34:22.525Z,6.70
2023-05-14T10:35:22.744Z,1.50
2023-05-14T10:36:23.169Z,1.30
2023-05-14T10:37:23.158Z,1.80
2023-05-14T10:38:22.485Z,3.40
2023-05-14T10:39:22.569Z,1.90
2023-05-14T10:40:22.721Z,1.40
2023-05-14T10:41:22.559Z,1.60
2023-05-14T10:42:22.481Z,3.20
2023-05-14T10:43:22.563Z,1.80
2023-05-14T10:44:22.463Z,2.70
2023-05-14T10:45:22.381Z,1.50
2023-05-14T10:46:22.450Z,2.10
2023-05-14T10:47:22.375Z,1.50
2023-05-14T10:48:22.445Z,1.80
2023-05-14T10:49:36.094Z,1.90
2023-05-14T10:50:23.775Z,2.00
2023-05-14T10:51:26.473Z,2.00
2023-05-14T10:52:22.366Z,1.20
2023-05-14T10:53:22.332Z,1.30
2023-05-14T10:54:22.759Z,2.70
2023-05-14T10:55:22.294Z,1.60
2023-05-14T10:56:22.425Z,1.70
2023-05-14T10:57:22.553Z,3.90
2023-05-14T10:58:22.641Z,2.00
2023-05-14T10:59:22.238Z,1.50
2023-05-14T11:00:22.571Z,1.70
2023-05-14T11:01:22.382Z,1.70
2023-05-14T11:02:22.268Z,1.30
2023-05-14T11:03:22.302Z,1.70
2023-05-14T11:04:22.220Z,1.40
2023-05-14T11:05:22.192Z,1.60
2023-05-14T11:06:22.284Z,2.50
2023-05-14T11:07:22.139Z,1.30
2023-05-14T11:08:24.820Z,1.20
2023-05-14T11:09:22.162Z,2.80
2023-05-14T11:10:22.508Z,1.30
2023-05-14T11:11:22.182Z,1.70
2023-05-14T11:12:22.131Z,2.40
2023-05-14T11:13:22.100Z,2.70
2023-05-14T11:14:22.183Z,1.20
2023-05-14T11:15:22.208Z,1.60
2023-05-14T11:16:23.685Z,1.90
2023-05-14T11:17:22.233Z,2.20
2023-05-14T11:18:22.233Z,1.10
2023-05-14T11:19:22.026Z,1.70
2023-05-14T11:20:22.353Z,1.50
2023-05-14T11:21:22.026Z,1.70
2023-05-14T11:22:22.254Z,1.20
2023-05-14T11:23:21.983Z,1.50
2023-05-14T11:24:21.995Z,1.70
2023-05-14T11:25:21.991Z,1.20
2023-05-14T11:26:21.993Z,1.10
2023-05-14T11:27:21.904Z,1.20
2023-05-14T11:28:21.948Z,1.40
2023-05-14T11:29:22.002Z,6.30
2023-05-14T11:30:22.100Z,1.40
2023-05-14T11:31:21.927Z,1.10
2023-05-14T11:32:21.974Z,1.30
2023-05-14T11:33:21.862Z,3.90
2023-05-14T11:34:21.878Z,1.10
2023-05-14T11:35:21.852Z,1.40
2023-05-14T11:36:21.840Z,1.30
2023-05-14T11:37:22.136Z,1.90
2023-05-14T11:38:21.908Z,2.20
2023-05-14T11:39:22.253Z,0.90
2023-05-14T11:40:22.483Z,1.80
2023-05-14T11:41:21.981Z,2.00
2023-05-14T11:42:21.810Z,1.50
2023-05-14T11:43:21.741Z,1.60
2023-05-14T11:44:21.751Z,1.50
2023-05-14T11:45:21.752Z,0.70
2023-05-14T11:46:21.858Z,2.90
2023-05-14T11:47:21.694Z,1.30
2023-05-14T11:48:21.714Z,1.10
2023-05-14T11:49:21.668Z,1.10
2023-05-14T11:50:21.836Z,1.10
2023-05-14T11:51:21.647Z,1.50
2023-05-14T11:52:21.694Z,1.20
2023-05-14T11:53:21.648Z,1.10
2023-05-14T11:54:21.636Z,1.10
2023-05-14T11:55:21.640Z,1.30
2023-05-14T11:56:21.604Z,2.30
2023-05-14T11:57:21.614Z,2.40
2023-05-14T11:58:21.795Z,1.40
2023-05-14T11:59:21.563Z,0.80
2023-05-14T12:00:22.047Z,2.10
2023-05-14T12:01:21.694Z,2.80
2023-05-14T12:02:22.275Z,1.30
2023-05-14T12:03:22.426Z,1.20
2023-05-14T12:04:21.571Z,1.20
2023-05-14T12:05:22.022Z,0.70
2023-05-14T12:06:21.516Z,0.80
2023-05-14T12:07:21.623Z,1.10
2023-05-14T12:08:21.565Z,0.70
2023-05-14T12:09:21.601Z,1.70
2023-05-14T12:10:21.768Z,1.00
2023-05-14T12:11:21.432Z,1.60
2023-05-14T12:12:21.452Z,2.10
2023-05-14T12:13:21.452Z,2.70
2023-05-14T12:14:21.620Z,1.10
2023-05-14T12:15:21.410Z,1.50
2023-05-14T12:16:21.463Z,2.10
2023-05-14T12:17:21.442Z,1.50
2023-05-14T12:18:25.024Z,1.00
2023-05-14T12:19:21.572Z,1.50
2023-05-14T12:20:21.455Z,1.30
2023-05-14T12:21:21.339Z,1.90
2023-05-14T12:22:21.350Z,1.20
2023-05-14T12:23:21.304Z,1.60
2023-05-14T12:24:21.324Z,1.10
2023-05-14T12:25:21.399Z,1.20
2023-05-14T12:26:21.299Z,1.30
2023-05-14T12:27:21.248Z,0.80
2023-05-14T12:28:21.241Z,1.10
2023-05-14T12:29:21.300Z,4.00
2023-05-14T12:30:22.199Z,1.80
2023-05-14T12:31:21.213Z,0.90
2023-05-14T12:32:21.626Z,1.80
2023-05-14T12:33:21.328Z,1.30
2023-05-14T12:34:21.195Z,2.10
2023-05-14T12:35:21.208Z,0.70
2023-05-14T12:36:22.405Z,1.80
2023-05-14T12:37:21.890Z,1.50
2023-05-14T12:38:21.216Z,1.70
2023-05-14T12:39:21.628Z,2.50
2023-05-14T12:40:21.212Z,2.30
2023-05-14T12:41:21.172Z,1.10
2023-05-14T12:42:21.159Z,1.20
2023-05-14T12:43:21.064Z,2.10
2023-05-14T12:44:21.060Z,1.60
2023-05-14T12:45:21.847Z,1.60
2023-05-14T12:46:21.121Z,2.80
2023-05-14T12:47:21.176Z,1.20
2023-05-14T12:48:21.200Z,1.40
2023-05-14T12:49:21.011Z,2.30
2023-05-14T12:50:21.006Z,1.20
2023-05-14T12:51:21.094Z,1.10
2023-05-14T12:52:36.195Z,1.70
2023-05-14T12:53:22.344Z,1.40
2023-05-14T12:54:21.125Z,0.90
2023-05-14T12:55:20.929Z,1.50
2023-05-14T12:56:20.944Z,1.30
2023-05-14T12:57:20.906Z,1.70
2023-05-14T12:58:21.264Z,1.50
2023-05-14T12:59:21.014Z,3.70
2023-05-14T13:00:20.908Z,1.60
2023-05-14T13:01:20.922Z,2.90
2023-05-14T13:02:20.873Z,4.70
2023-05-14T13:03:21.053Z,2.80
2023-05-14T13:04:20.873Z,1.40
2023-05-14T13:05:20.847Z,3.10
2023-05-14T13:06:20.818Z,1.70
2023-05-14T13:07:20.777Z,1.50
2023-05-14T13:08:20.806Z,3.20
2023-05-14T13:09:21.283Z,1.40
2023-05-14T13:10:20.788Z,2.70
2023-05-14T13:11:20.806Z,1.40
2023-05-14T13:12:20.733Z,1.10
2023-05-14T13:13:21.309Z,3.10
2023-05-14T13:14:20.720Z,1.60
2023-05-14T13:15:20.750Z,2.40